sensor_id;sensor_type;location;lat;lon;timestamp;P1;durP1;ratioP1;P2;durP2;ratioP2
11303;SDS011;5707;49.588;12.148;2023-11-22T00:00:02;1.10;;;1.10;;
11303;SDS011;5707;49.588;12.148;2023-11-22T00:02:29;0.80;;;0.80;;
11303;SDS011;5707;49.588;12.148;2023-11-22T00:04:55;0.60;;;0.60;;
11303;SDS011;5707;49.588;12.148;2023-11-22T00:07:20;0.88;;;0.88;;
11303;SDS011;5707;49.588;12.148;2023-11-22T00:09:46;0.70;;;0.70;;
11303;SDS011;5707;49.588;12.148;2023-11-22T00:12:12;0.88;;;0.88;;
11303;SDS011;5707;49.588;12.148;2023-11-22T00:14:38;0.60;;;0.60;;
11303;SDS011;5707;49.588;12.148;2023-11-22T00:17:04;0.50;;;0.50;;
11303;SDS011;5707;49.588;12.148;2023-11-22T00:19:29;1.92;;;0.75;;
11303;SDS011;5707;49.588;12.148;2023-11-22T00:21:55;1.38;;;0.80;;
11303;SDS011;5707;49.588;12.148;2023-11-22T00:24:21;0.60;;;0.60;;
11303;SDS011;5707;49.588;12.148;2023-11-22T00:26:46;0.80;;;0.80;;
11303;SDS011;5707;49.588;12.148;2023-11-22T00:29:12;0.77;;;0.77;;
11303;SDS011;5707;49.588;12.148;2023-11-22T00:31:38;1.25;;;1.00;;
11303;SDS011;5707;49.588;12.148;2023-11-22T00:34:04;0.88;;;0.88;;
11303;SDS011;5707;49.588;12.148;2023-11-22T00:36:29;0.70;;;0.70;;
11303;SDS011;5707;49.588;12.148;2023-11-22T00:38:55;0.80;;;0.80;;
11303;SDS011;5707;49.588;12.148;2023-11-22T00:41:21;1.00;;;1.00;;
11303;SDS011;5707;49.588;12.148;2023-11-22T00:43:46;0.68;;;0.68;;
11303;SDS011;5707;49.588;12.148;2023-11-22T00:46:12;0.75;;;0.75;;
11303;SDS011;5707;49.588;12.148;2023-11-22T00:48:38;0.80;;;0.80;;
11303;SDS011;5707;49.588;12.148;2023-11-22T00:51:03;0.77;;;0.77;;
11303;SDS011;5707;49.588;12.148;2023-11-22T00:53:34;0.85;;;0.80;;
11303;SDS011;5707;49.588;12.148;2023-11-22T00:56:01;0.77;;;0.77;;
11303;SDS011;5707;49.588;12.148;2023-11-22T00:58:27;1.02;;;0.90;;
11303;SDS011;5707;49.588;12.148;2023-11-22T01:00:52;0.90;;;0.90;;
11303;SDS011;5707;49.588;12.148;2023-11-22T01:03:18;1.23;;;1.13;;
11303;SDS011;5707;49.588;12.148;2023-11-22T01:05:44;1.10;;;1.10;;
11303;SDS011;5707;49.588;12.148;2023-11-22T01:08:11;1.33;;;1.23;;
11303;SDS011;5707;49.588;12.148;2023-11-22T01:10:38;1.08;;;0.98;;
11303;SDS011;5707;49.588;12.148;2023-11-22T01:13:04;1.25;;;1.13;;
11303;SDS011;5707;49.588;12.148;2023-11-22T01:15:30;1.17;;;1.10;;
11303;SDS011;5707;49.588;12.148;2023-11-22T01:17:55;1.15;;;1.10;;
11303;SDS011;5707;49.588;12.148;2023-11-22T01:20:21;0.90;;;0.90;;
11303;SDS011;5707;49.588;12.148;2023-11-22T01:22:48;1.33;;;1.23;;
11303;SDS011;5707;49.588;12.148;2023-11-22T01:25:14;1.30;;;1.30;;
11303;SDS011;5707;49.588;12.148;2023-11-22T01:27:39;1.30;;;1.20;;
11303;SDS011;5707;49.588;12.148;2023-11-22T01:30:05;1.20;;;1.20;;
11303;SDS011;5707;49.588;12.148;2023-11-22T01:32:34;1.58;;;1.50;;
11303;SDS011;5707;49.588;12.148;2023-11-22T01:35:00;2.38;;;2.25;;
11303;SDS011;5707;49.588;12.148;2023-11-22T01:37:26;2.10;;;1.98;;
11303;SDS011;5707;49.588;12.148;2023-11-22T01:39:52;2.17;;;1.88;;
11303;SDS011;5707;49.588;12.148;2023-11-22T01:42:19;1.83;;;1.73;;
11303;SDS011;5707;49.588;12.148;2023-11-22T01:44:45;1.98;;;1.88;;
11303;SDS011;5707;49.588;12.148;2023-11-22T01:47:13;2.10;;;2.00;;
11303;SDS011;5707;49.588;12.148;2023-11-22T01:49:39;1.85;;;1.75;;
11303;SDS011;5707;49.588;12.148;2023-11-22T01:52:05;2.17;;;1.88;;
11303;SDS011;5707;49.588;12.148;2023-11-22T01:54:31;1.90;;;1.80;;
11303;SDS011;5707;49.588;12.148;2023-11-22T01:56:58;1.83;;;1.73;;
11303;SDS011;5707;49.588;12.148;2023-11-22T01:59:24;1.75;;;1.65;;
11303;SDS011;5707;49.588;12.148;2023-11-22T02:01:51;1.70;;;1.60;;
11303;SDS011;5707;49.588;12.148;2023-11-22T02:04:18;2.10;;;2.00;;
11303;SDS011;5707;49.588;12.148;2023-11-22T02:06:43;1.60;;;1.50;;
11303;SDS011;5707;49.588;12.148;2023-11-22T02:09:10;1.83;;;1.73;;
11303;SDS011;5707;49.588;12.148;2023-11-22T02:11:38;1.60;;;1.50;;
11303;SDS011;5707;49.588;12.148;2023-11-22T02:14:05;1.80;;;1.70;;
11303;SDS011;5707;49.588;12.148;2023-11-22T02:16:32;2.13;;;2.03;;
11303;SDS011;5707;49.588;12.148;2023-11-22T02:18:57;1.70;;;1.60;;
11303;SDS011;5707;49.588;12.148;2023-11-22T02:21:23;2.38;;;1.65;;
11303;SDS011;5707;49.588;12.148;2023-11-22T02:23:49;2.20;;;1.50;;
11303;SDS011;5707;49.588;12.148;2023-11-22T02:26:14;1.58;;;1.48;;
11303;SDS011;5707;49.588;12.148;2023-11-22T02:28:43;1.58;;;1.48;;
11303;SDS011;5707;49.588;12.148;2023-11-22T02:31:09;1.45;;;1.35;;
11303;SDS011;5707;49.588;12.148;2023-11-22T02:33:34;1.80;;;1.70;;
11303;SDS011;5707;49.588;12.148;2023-11-22T02:36:00;1.20;;;1.20;;
11303;SDS011;5707;49.588;12.148;2023-11-22T02:38:27;1.55;;;1.45;;
11303;SDS011;5707;49.588;12.148;2023-11-22T02:40:53;1.23;;;1.20;;
11303;SDS011;5707;49.588;12.148;2023-11-22T02:43:19;1.40;;;1.30;;
11303;SDS011;5707;49.588;12.148;2023-11-22T02:45:45;1.23;;;1.23;;
11303;SDS011;5707;49.588;12.148;2023-11-22T02:48:11;1.30;;;1.20;;
11303;SDS011;5707;49.588;12.148;2023-11-22T02:50:38;1.65;;;1.00;;
11303;SDS011;5707;49.588;12.148;2023-11-22T02:53:04;1.52;;;1.42;;
11303;SDS011;5707;49.588;12.148;2023-11-22T02:55:30;1.55;;;1.45;;
11303;SDS011;5707;49.588;12.148;2023-11-22T02:57:56;1.30;;;1.20;;
11303;SDS011;5707;49.588;12.148;2023-11-22T03:00:21;1.40;;;1.30;;
11303;SDS011;5707;49.588;12.148;2023-11-22T03:02:47;1.45;;;1.35;;
11303;SDS011;5707;49.588;12.148;2023-11-22T03:05:18;1.50;;;1.40;;
11303;SDS011;5707;49.588;12.148;2023-11-22T03:07:47;1.33;;;1.30;;
11303;SDS011;5707;49.588;12.148;2023-11-22T03:10:13;0.95;;;0.95;;
11303;SDS011;5707;49.588;12.148;2023-11-22T03:12:38;1.52;;;1.42;;
11303;SDS011;5707;49.588;12.148;2023-11-22T03:15:07;1.17;;;1.15;;
11303;SDS011;5707;49.588;12.148;2023-11-22T03:17:33;1.50;;;1.40;;
11303;SDS011;5707;49.588;12.148;2023-11-22T03:19:59;1.48;;;1.30;;
11303;SDS011;5707;49.588;12.148;2023-11-22T03:22:26;1.45;;;1.35;;
11303;SDS011;5707;49.588;12.148;2023-11-22T03:24:55;1.20;;;1.20;;
11303;SDS011;5707;49.588;12.148;2023-11-22T03:27:21;1.25;;;1.15;;
11303;SDS011;5707;49.588;12.148;2023-11-22T03:29:48;1.50;;;1.40;;
11303;SDS011;5707;49.588;12.148;2023-11-22T03:32:14;1.20;;;1.20;;
11303;SDS011;5707;49.588;12.148;2023-11-22T03:34:39;1.02;;;1.02;;
11303;SDS011;5707;49.588;12.148;2023-11-22T03:37:05;1.00;;;1.00;;
11303;SDS011;5707;49.588;12.148;2023-11-22T03:39:30;1.30;;;1.30;;
11303;SDS011;5707;49.588;12.148;2023-11-22T03:41:56;1.10;;;1.10;;
11303;SDS011;5707;49.588;12.148;2023-11-22T03:44:22;0.80;;;0.80;;
11303;SDS011;5707;49.588;12.148;2023-11-22T03:46:48;1.17;;;1.17;;
11303;SDS011;5707;49.588;12.148;2023-11-22T03:49:13;0.88;;;0.88;;
11303;SDS011;5707;49.588;12.148;2023-11-22T03:51:40;1.10;;;1.00;;
11303;SDS011;5707;49.588;12.148;2023-11-22T03:54:06;0.98;;;0.98;;
11303;SDS011;5707;49.588;12.148;2023-11-22T03:56:32;1.15;;;1.15;;
11303;SDS011;5707;49.588;12.148;2023-11-22T03:58:58;1.30;;;1.20;;
11303;SDS011;5707;49.588;12.148;2023-11-22T04:01:24;1.30;;;1.20;;
11303;SDS011;5707;49.588;12.148;2023-11-22T04:03:49;1.02;;;1.02;;
11303;SDS011;5707;49.588;12.148;2023-11-22T04:06:16;1.02;;;1.02;;
11303;SDS011;5707;49.588;12.148;2023-11-22T04:08:42;1.23;;;1.23;;
11303;SDS011;5707;49.588;12.148;2023-11-22T04:11:09;1.40;;;1.40;;
11303;SDS011;5707;49.588;12.148;2023-11-22T04:13:35;1.30;;;1.30;;
11303;SDS011;5707;49.588;12.148;2023-11-22T04:16:01;1.38;;;1.38;;
11303;SDS011;5707;49.588;12.148;2023-11-22T04:18:26;1.70;;;1.60;;
11303;SDS011;5707;49.588;12.148;2023-11-22T04:20:52;1.40;;;1.40;;
11303;SDS011;5707;49.588;12.148;2023-11-22T04:23:18;1.70;;;1.60;;
11303;SDS011;5707;49.588;12.148;2023-11-22T04:25:43;1.85;;;1.75;;
11303;SDS011;5707;49.588;12.148;2023-11-22T04:28:09;1.77;;;1.67;;
11303;SDS011;5707;49.588;12.148;2023-11-22T04:30:35;1.80;;;1.70;;
11303;SDS011;5707;49.588;12.148;2023-11-22T04:33:01;1.80;;;1.70;;
11303;SDS011;5707;49.588;12.148;2023-11-22T04:35:27;1.50;;;1.40;;
11303;SDS011;5707;49.588;12.148;2023-11-22T04:37:52;2.38;;;1.30;;
11303;SDS011;5707;49.588;12.148;2023-11-22T04:40:20;1.45;;;1.35;;
11303;SDS011;5707;49.588;12.148;2023-11-22T04:42:45;1.40;;;1.30;;
11303;SDS011;5707;49.588;12.148;2023-11-22T04:45:12;1.48;;;1.38;;
11303;SDS011;5707;49.588;12.148;2023-11-22T04:47:38;1.88;;;1.77;;
11303;SDS011;5707;49.588;12.148;2023-11-22T04:50:03;1.88;;;1.77;;
11303;SDS011;5707;49.588;12.148;2023-11-22T04:52:29;2.03;;;1.92;;
11303;SDS011;5707;49.588;12.148;2023-11-22T04:54:56;2.00;;;1.90;;
11303;SDS011;5707;49.588;12.148;2023-11-22T04:57:21;2.20;;;2.10;;
11303;SDS011;5707;49.588;12.148;2023-11-22T04:59:47;2.08;;;1.98;;
11303;SDS011;5707;49.588;12.148;2023-11-22T05:02:12;2.38;;;2.28;;
11303;SDS011;5707;49.588;12.148;2023-11-22T05:04:38;2.15;;;2.05;;
11303;SDS011;5707;49.588;12.148;2023-11-22T05:07:03;2.22;;;2.13;;
11303;SDS011;5707;49.588;12.148;2023-11-22T05:09:29;2.58;;;2.38;;
11303;SDS011;5707;49.588;12.148;2023-11-22T05:11:54;2.53;;;2.42;;
11303;SDS011;5707;49.588;12.148;2023-11-22T05:14:20;2.95;;;2.75;;
11303;SDS011;5707;49.588;12.148;2023-11-22T05:16:46;2.90;;;2.70;;
11303;SDS011;5707;49.588;12.148;2023-11-22T05:19:11;2.53;;;2.40;;
11303;SDS011;5707;49.588;12.148;2023-11-22T05:21:37;3.15;;;2.95;;
11303;SDS011;5707;49.588;12.148;2023-11-22T05:24:02;3.40;;;3.20;;
11303;SDS011;5707;49.588;12.148;2023-11-22T05:26:28;3.25;;;3.05;;
11303;SDS011;5707;49.588;12.148;2023-11-22T05:28:54;3.58;;;3.28;;
11303;SDS011;5707;49.588;12.148;2023-11-22T05:31:20;3.45;;;3.25;;
11303;SDS011;5707;49.588;12.148;2023-11-22T05:33:46;3.88;;;3.58;;
11303;SDS011;5707;49.588;12.148;2023-11-22T05:36:11;4.20;;;3.60;;
11303;SDS011;5707;49.588;12.148;2023-11-22T05:38:37;4.35;;;3.83;;
11303;SDS011;5707;49.588;12.148;2023-11-22T05:41:03;4.05;;;3.75;;
11303;SDS011;5707;49.588;12.148;2023-11-22T05:43:28;3.72;;;3.53;;
11303;SDS011;5707;49.588;12.148;2023-11-22T05:45:54;4.20;;;3.90;;
11303;SDS011;5707;49.588;12.148;2023-11-22T05:48:20;4.15;;;3.85;;
11303;SDS011;5707;49.588;12.148;2023-11-22T05:50:46;4.43;;;4.13;;
11303;SDS011;5707;49.588;12.148;2023-11-22T05:53:12;4.65;;;4.35;;
11303;SDS011;5707;49.588;12.148;2023-11-22T05:55:44;4.40;;;4.10;;
11303;SDS011;5707;49.588;12.148;2023-11-22T05:58:10;4.35;;;4.05;;
11303;SDS011;5707;49.588;12.148;2023-11-22T06:00:36;4.50;;;4.20;;
11303;SDS011;5707;49.588;12.148;2023-11-22T06:03:03;3.85;;;3.63;;
11303;SDS011;5707;49.588;12.148;2023-11-22T06:05:29;5.03;;;4.72;;
11303;SDS011;5707;49.588;12.148;2023-11-22T06:07:55;6.47;;;5.20;;
11303;SDS011;5707;49.588;12.148;2023-11-22T06:10:21;4.97;;;4.60;;
11303;SDS011;5707;49.588;12.148;2023-11-22T06:12:47;4.30;;;4.00;;
11303;SDS011;5707;49.588;12.148;2023-11-22T06:15:13;4.50;;;4.13;;
11303;SDS011;5707;49.588;12.148;2023-11-22T06:17:38;4.68;;;4.30;;
11303;SDS011;5707;49.588;12.148;2023-11-22T06:20:04;4.78;;;4.47;;
11303;SDS011;5707;49.588;12.148;2023-11-22T06:22:31;4.28;;;3.97;;
11303;SDS011;5707;49.588;12.148;2023-11-22T06:24:57;4.40;;;4.07;;
11303;SDS011;5707;49.588;12.148;2023-11-22T06:27:23;5.05;;;4.53;;
11303;SDS011;5707;49.588;12.148;2023-11-22T06:29:48;4.15;;;3.78;;
11303;SDS011;5707;49.588;12.148;2023-11-22T06:32:14;4.80;;;4.40;;
11303;SDS011;5707;49.588;12.148;2023-11-22T06:34:39;4.80;;;4.50;;
11303;SDS011;5707;49.588;12.148;2023-11-22T06:37:05;4.32;;;4.03;;
11303;SDS011;5707;49.588;12.148;2023-11-22T06:39:33;4.28;;;3.85;;
11303;SDS011;5707;49.588;12.148;2023-11-22T06:42:00;4.63;;;4.32;;
11303;SDS011;5707;49.588;12.148;2023-11-22T06:44:25;5.22;;;4.32;;
11303;SDS011;5707;49.588;12.148;2023-11-22T06:46:52;4.25;;;3.95;;
11303;SDS011;5707;49.588;12.148;2023-11-22T06:49:18;6.15;;;4.68;;
11303;SDS011;5707;49.588;12.148;2023-11-22T06:51:44;4.57;;;4.18;;
11303;SDS011;5707;49.588;12.148;2023-11-22T06:54:10;4.32;;;4.03;;
11303;SDS011;5707;49.588;12.148;2023-11-22T06:56:35;5.07;;;4.68;;
11303;SDS011;5707;49.588;12.148;2023-11-22T06:59:01;4.47;;;4.10;;
11303;SDS011;5707;49.588;12.148;2023-11-22T07:01:26;4.95;;;4.55;;
11303;SDS011;5707;49.588;12.148;2023-11-22T07:03:52;4.50;;;4.10;;
11303;SDS011;5707;49.588;12.148;2023-11-22T07:06:18;4.25;;;3.95;;
11303;SDS011;5707;49.588;12.148;2023-11-22T07:08:44;4.28;;;3.97;;
11303;SDS011;5707;49.588;12.148;2023-11-22T07:11:10;4.18;;;3.88;;
11303;SDS011;5707;49.588;12.148;2023-11-22T07:13:36;4.53;;;4.22;;
11303;SDS011;5707;49.588;12.148;2023-11-22T07:16:03;3.40;;;3.10;;
11303;SDS011;5707;49.588;12.148;2023-11-22T07:18:29;3.80;;;3.50;;
11303;SDS011;5707;49.588;12.148;2023-11-22T07:20:57;4.35;;;4.05;;
11303;SDS011;5707;49.588;12.148;2023-11-22T07:23:22;4.43;;;3.75;;
11303;SDS011;5707;49.588;12.148;2023-11-22T07:25:52;4.43;;;4.03;;
11303;SDS011;5707;49.588;12.148;2023-11-22T07:28:17;3.90;;;3.60;;
11303;SDS011;5707;49.588;12.148;2023-11-22T07:30:44;3.53;;;3.33;;
11303;SDS011;5707;49.588;12.148;2023-11-22T07:33:09;3.67;;;3.42;;
11303;SDS011;5707;49.588;12.148;2023-11-22T07:35:36;3.67;;;3.47;;
11303;SDS011;5707;49.588;12.148;2023-11-22T07:38:01;3.72;;;3.50;;
11303;SDS011;5707;49.588;12.148;2023-11-22T07:40:28;3.63;;;3.33;;
11303;SDS011;5707;49.588;12.148;2023-11-22T07:42:54;3.58;;;3.28;;
11303;SDS011;5707;49.588;12.148;2023-11-22T07:45:20;3.70;;;3.40;;
11303;SDS011;5707;49.588;12.148;2023-11-22T07:47:45;3.70;;;3.40;;
11303;SDS011;5707;49.588;12.148;2023-11-22T07:50:12;3.70;;;3.50;;
11303;SDS011;5707;49.588;12.148;2023-11-22T07:52:38;4.25;;;3.40;;
11303;SDS011;5707;49.588;12.148;2023-11-22T07:55:05;4.13;;;3.83;;
11303;SDS011;5707;49.588;12.148;2023-11-22T07:57:38;4.18;;;3.88;;
11303;SDS011;5707;49.588;12.148;2023-11-22T08:00:06;4.10;;;3.80;;
11303;SDS011;5707;49.588;12.148;2023-11-22T08:02:33;4.38;;;4.07;;
11303;SDS011;5707;49.588;12.148;2023-11-22T08:04:59;4.28;;;3.88;;
11303;SDS011;5707;49.588;12.148;2023-11-22T08:07:27;4.03;;;3.67;;
11303;SDS011;5707;49.588;12.148;2023-11-22T08:09:53;3.85;;;3.55;;
11303;SDS011;5707;49.588;12.148;2023-11-22T08:12:19;4.15;;;3.85;;
11303;SDS011;5707;49.588;12.148;2023-11-22T08:14:44;4.30;;;4.00;;
11303;SDS011;5707;49.588;12.148;2023-11-22T08:17:10;6.57;;;4.63;;
11303;SDS011;5707;49.588;12.148;2023-11-22T08:19:37;5.28;;;4.88;;
11303;SDS011;5707;49.588;12.148;2023-11-22T08:22:04;5.60;;;5.20;;
11303;SDS011;5707;49.588;12.148;2023-11-22T08:24:30;5.30;;;4.60;;
11303;SDS011;5707;49.588;12.148;2023-11-22T08:26:57;5.20;;;4.80;;
11303;SDS011;5707;49.588;12.148;2023-11-22T08:29:23;5.80;;;5.30;;
11303;SDS011;5707;49.588;12.148;2023-11-22T08:31:49;5.95;;;5.47;;
11303;SDS011;5707;49.588;12.148;2023-11-22T08:34:15;6.53;;;6.03;;
11303;SDS011;5707;49.588;12.148;2023-11-22T08:36:41;6.57;;;6.07;;
11303;SDS011;5707;49.588;12.148;2023-11-22T08:39:07;6.50;;;6.00;;
11303;SDS011;5707;49.588;12.148;2023-11-22T08:41:33;6.85;;;6.35;;
11303;SDS011;5707;49.588;12.148;2023-11-22T08:43:59;6.18;;;5.68;;
11303;SDS011;5707;49.588;12.148;2023-11-22T08:46:25;5.88;;;5.47;;
11303;SDS011;5707;49.588;12.148;2023-11-22T08:48:51;5.63;;;5.28;;
11303;SDS011;5707;49.588;12.148;2023-11-22T08:51:16;5.97;;;5.57;;
11303;SDS011;5707;49.588;12.148;2023-11-22T08:53:43;5.93;;;5.35;;
11303;SDS011;5707;49.588;12.148;2023-11-22T08:56:12;5.55;;;5.15;;
11303;SDS011;5707;49.588;12.148;2023-11-22T08:58:38;6.13;;;5.70;;
11303;SDS011;5707;49.588;12.148;2023-11-22T09:01:04;5.53;;;5.03;;
11303;SDS011;5707;49.588;12.148;2023-11-22T09:03:30;5.40;;;5.00;;
11303;SDS011;5707;49.588;12.148;2023-11-22T09:05:57;5.47;;;5.07;;
11303;SDS011;5707;49.588;12.148;2023-11-22T09:08:23;4.97;;;4.57;;
11303;SDS011;5707;49.588;12.148;2023-11-22T09:10:48;5.35;;;5.00;;
11303;SDS011;5707;49.588;12.148;2023-11-22T09:13:15;4.65;;;4.35;;
11303;SDS011;5707;49.588;12.148;2023-11-22T09:15:41;4.80;;;4.47;;
11303;SDS011;5707;49.588;12.148;2023-11-22T09:18:09;4.85;;;4.55;;
11303;SDS011;5707;49.588;12.148;2023-11-22T09:20:38;5.18;;;4.78;;
11303;SDS011;5707;49.588;12.148;2023-11-22T09:23:04;4.80;;;4.50;;
11303;SDS011;5707;49.588;12.148;2023-11-22T09:25:30;4.72;;;4.38;;
11303;SDS011;5707;49.588;12.148;2023-11-22T09:27:56;5.57;;;5.18;;
11303;SDS011;5707;49.588;12.148;2023-11-22T09:30:26;5.28;;;4.88;;
11303;SDS011;5707;49.588;12.148;2023-11-22T09:32:59;5.07;;;4.70;;
11303;SDS011;5707;49.588;12.148;2023-11-22T09:35:33;5.70;;;5.25;;
11303;SDS011;5707;49.588;12.148;2023-11-22T09:38:03;4.95;;;4.55;;
11303;SDS011;5707;49.588;12.148;2023-11-22T09:40:46;5.90;;;5.40;;
11303;SDS011;5707;49.588;12.148;2023-11-22T09:43:13;6.15;;;5.75;;
11303;SDS011;5707;49.588;12.148;2023-11-22T09:45:42;5.35;;;5.05;;
11303;SDS011;5707;49.588;12.148;2023-11-22T09:53:34;6.18;;;5.78;;
11303;SDS011;5707;49.588;12.148;2023-11-22T09:56:12;5.95;;;5.55;;
11303;SDS011;5707;49.588;12.148;2023-11-22T09:58:41;5.68;;;5.28;;
11303;SDS011;5707;49.588;12.148;2023-11-22T10:01:13;5.72;;;5.30;;
11303;SDS011;5707;49.588;12.148;2023-11-22T10:03:38;5.80;;;5.40;;
11303;SDS011;5707;49.588;12.148;2023-11-22T10:06:05;5.68;;;5.28;;
11303;SDS011;5707;49.588;12.148;2023-11-22T10:08:32;5.57;;;5.10;;
11303;SDS011;5707;49.588;12.148;2023-11-22T10:10:58;6.10;;;5.60;;
11303;SDS011;5707;49.588;12.148;2023-11-22T10:13:24;6.13;;;5.68;;
11303;SDS011;5707;49.588;12.148;2023-11-22T10:15:51;5.40;;;5.00;;
11303;SDS011;5707;49.588;12.148;2023-11-22T10:18:20;6.80;;;6.30;;
11303;SDS011;5707;49.588;12.148;2023-11-22T10:20:47;5.95;;;5.45;;
11303;SDS011;5707;49.588;12.148;2023-11-22T10:23:14;5.80;;;5.40;;
11303;SDS011;5707;49.588;12.148;2023-11-22T10:25:47;5.75;;;5.35;;
11303;SDS011;5707;49.588;12.148;2023-11-22T10:28:17;7.00;;;6.00;;
11303;SDS011;5707;49.588;12.148;2023-11-22T10:30:49;6.15;;;5.70;;
11303;SDS011;5707;49.588;12.148;2023-11-22T10:33:16;5.60;;;5.20;;
11303;SDS011;5707;49.588;12.148;2023-11-22T10:35:46;6.43;;;5.93;;
11303;SDS011;5707;49.588;12.148;2023-11-22T10:38:16;6.35;;;5.85;;
11303;SDS011;5707;49.588;12.148;2023-11-22T10:40:43;6.55;;;6.05;;
11303;SDS011;5707;49.588;12.148;2023-11-22T10:43:13;6.18;;;5.78;;
11303;SDS011;5707;49.588;12.148;2023-11-22T10:45:40;6.32;;;5.93;;
11303;SDS011;5707;49.588;12.148;2023-11-22T10:48:09;5.88;;;5.47;;
11303;SDS011;5707;49.588;12.148;2023-11-22T10:50:36;5.47;;;5.07;;
11303;SDS011;5707;49.588;12.148;2023-11-22T10:53:02;6.10;;;5.63;;
11303;SDS011;5707;49.588;12.148;2023-11-22T10:55:32;5.97;;;5.50;;
11303;SDS011;5707;49.588;12.148;2023-11-22T10:58:04;5.57;;;5.18;;
11303;SDS011;5707;49.588;12.148;2023-11-22T11:00:31;5.75;;;5.35;;
11303;SDS011;5707;49.588;12.148;2023-11-22T11:02:59;5.72;;;5.22;;
11303;SDS011;5707;49.588;12.148;2023-11-22T11:05:30;6.35;;;5.88;;
11303;SDS011;5707;49.588;12.148;2023-11-22T11:08:00;6.88;;;6.38;;
11303;SDS011;5707;49.588;12.148;2023-11-22T11:10:34;6.43;;;5.93;;
11303;SDS011;5707;49.588;12.148;2023-11-22T11:13:00;5.75;;;5.28;;
11303;SDS011;5707;49.588;12.148;2023-11-22T11:15:26;6.10;;;5.60;;
11303;SDS011;5707;49.588;12.148;2023-11-22T11:17:53;6.30;;;5.80;;
11303;SDS011;5707;49.588;12.148;2023-11-22T11:20:21;6.25;;;5.82;;
11303;SDS011;5707;49.588;12.148;2023-11-22T11:22:48;6.07;;;5.68;;
11303;SDS011;5707;49.588;12.148;2023-11-22T11:25:15;5.82;;;5.35;;
11303;SDS011;5707;49.588;12.148;2023-11-22T11:27:44;6.25;;;5.75;;
11303;SDS011;5707;49.588;12.148;2023-11-22T11:32:58;6.22;;;5.72;;
11303;SDS011;5707;49.588;12.148;2023-11-22T11:35:39;8.25;;;6.40;;
11303;SDS011;5707;49.588;12.148;2023-11-22T11:38:07;7.07;;;6.38;;
11303;SDS011;5707;49.588;12.148;2023-11-22T11:40:34;7.95;;;7.35;;
11303;SDS011;5707;49.588;12.148;2023-11-22T11:43:01;6.38;;;5.85;;
11303;SDS011;5707;49.588;12.148;2023-11-22T11:45:27;6.68;;;6.13;;
11303;SDS011;5707;49.588;12.148;2023-11-22T11:47:54;7.30;;;6.60;;
11303;SDS011;5707;49.588;12.148;2023-11-22T11:50:22;7.30;;;6.68;;
11303;SDS011;5707;49.588;12.148;2023-11-22T11:52:48;6.00;;;5.47;;
11303;SDS011;5707;49.588;12.148;2023-11-22T11:55:13;7.15;;;6.55;;
11303;SDS011;5707;49.588;12.148;2023-11-22T11:57:40;5.97;;;5.57;;
11303;SDS011;5707;49.588;12.148;2023-11-22T12:00:07;5.90;;;5.50;;
11303;SDS011;5707;49.588;12.148;2023-11-22T12:02:34;6.80;;;6.30;;
11303;SDS011;5707;49.588;12.148;2023-11-22T12:05:00;9.45;;;8.75;;
11303;SDS011;5707;49.588;12.148;2023-11-22T12:07:33;6.38;;;5.88;;
11303;SDS011;5707;49.588;12.148;2023-11-22T12:10:02;6.75;;;6.25;;
11303;SDS011;5707;49.588;12.148;2023-11-22T12:12:31;5.85;;;5.35;;
11303;SDS011;5707;49.588;12.148;2023-11-22T12:14:56;5.75;;;5.35;;
11303;SDS011;5707;49.588;12.148;2023-11-22T12:17:22;6.65;;;6.05;;
11303;SDS011;5707;49.588;12.148;2023-11-22T12:19:48;5.68;;;5.18;;
11303;SDS011;5707;49.588;12.148;2023-11-22T12:22:14;5.80;;;5.38;;
11303;SDS011;5707;49.588;12.148;2023-11-22T12:24:41;5.85;;;5.35;;
11303;SDS011;5707;49.588;12.148;2023-11-22T12:27:11;7.82;;;5.00;;
11303;SDS011;5707;49.588;12.148;2023-11-22T12:29:37;6.20;;;5.60;;
11303;SDS011;5707;49.588;12.148;2023-11-22T12:32:02;6.93;;;6.20;;
11303;SDS011;5707;49.588;12.148;2023-11-22T12:34:28;5.88;;;5.38;;
11303;SDS011;5707;49.588;12.148;2023-11-22T12:36:55;5.15;;;4.68;;
11303;SDS011;5707;49.588;12.148;2023-11-22T12:39:21;5.20;;;4.78;;
11303;SDS011;5707;49.588;12.148;2023-11-22T12:41:48;6.13;;;5.28;;
11303;SDS011;5707;49.588;12.148;2023-11-22T12:44:18;5.57;;;5.18;;
11303;SDS011;5707;49.588;12.148;2023-11-22T12:46:50;5.60;;;5.20;;
11303;SDS011;5707;49.588;12.148;2023-11-22T12:49:35;5.80;;;5.18;;
11303;SDS011;5707;49.588;12.148;2023-11-22T12:52:10;5.28;;;4.90;;
11303;SDS011;5707;49.588;12.148;2023-11-22T12:54:37;4.95;;;4.55;;
11303;SDS011;5707;49.588;12.148;2023-11-22T12:57:03;5.45;;;5.05;;
11303;SDS011;5707;49.588;12.148;2023-11-22T12:59:35;5.05;;;4.72;;
11303;SDS011;5707;49.588;12.148;2023-11-22T13:02:00;5.22;;;4.85;;
11303;SDS011;5707;49.588;12.148;2023-11-22T13:04:27;6.20;;;5.70;;
11303;SDS011;5707;49.588;12.148;2023-11-22T13:06:54;5.95;;;5.45;;
11303;SDS011;5707;49.588;12.148;2023-11-22T13:09:20;5.65;;;5.25;;
11303;SDS011;5707;49.588;12.148;2023-11-22T13:11:45;6.32;;;5.20;;
11303;SDS011;5707;49.588;12.148;2023-11-22T13:14:12;9.25;;;8.02;;
11303;SDS011;5707;49.588;12.148;2023-11-22T13:16:41;6.85;;;6.25;;
11303;SDS011;5707;49.588;12.148;2023-11-22T13:19:07;5.70;;;5.20;;
11303;SDS011;5707;49.588;12.148;2023-11-22T13:21:34;8.32;;;5.80;;
11303;SDS011;5707;49.588;12.148;2023-11-22T13:24:00;6.32;;;5.28;;
11303;SDS011;5707;49.588;12.148;2023-11-22T13:26:26;5.90;;;5.05;;
11303;SDS011;5707;49.588;12.148;2023-11-22T13:28:52;5.35;;;4.95;;
11303;SDS011;5707;49.588;12.148;2023-11-22T13:31:19;5.40;;;5.00;;
11303;SDS011;5707;49.588;12.148;2023-11-22T13:33:46;7.78;;;7.07;;
11303;SDS011;5707;49.588;12.148;2023-11-22T13:36:12;5.53;;;5.10;;
11303;SDS011;5707;49.588;12.148;2023-11-22T13:38:39;7.10;;;5.40;;
11303;SDS011;5707;49.588;12.148;2023-11-22T13:41:05;5.65;;;5.25;;
11303;SDS011;5707;49.588;12.148;2023-11-22T13:43:30;5.28;;;4.88;;
11303;SDS011;5707;49.588;12.148;2023-11-22T13:45:58;5.15;;;4.75;;
11303;SDS011;5707;49.588;12.148;2023-11-22T13:48:23;4.90;;;4.55;;
11303;SDS011;5707;49.588;12.148;2023-11-22T13:50:50;5.28;;;4.88;;
11303;SDS011;5707;49.588;12.148;2023-11-22T13:53:15;4.68;;;4.38;;
11303;SDS011;5707;49.588;12.148;2023-11-22T13:55:44;5.57;;;5.18;;
11303;SDS011;5707;49.588;12.148;2023-11-22T13:58:10;5.60;;;5.20;;
11303;SDS011;5707;49.588;12.148;2023-11-22T14:00:36;5.45;;;4.95;;
11303;SDS011;5707;49.588;12.148;2023-11-22T14:03:03;5.22;;;4.82;;
11303;SDS011;5707;49.588;12.148;2023-11-22T14:05:33;4.88;;;4.55;;
11303;SDS011;5707;49.588;12.148;2023-11-22T14:08:01;5.93;;;5.25;;
11303;SDS011;5707;49.588;12.148;2023-11-22T14:10:27;7.82;;;5.15;;
11303;SDS011;5707;49.588;12.148;2023-11-22T14:12:53;4.90;;;4.60;;
11303;SDS011;5707;49.588;12.148;2023-11-22T14:15:19;5.13;;;4.80;;
11303;SDS011;5707;49.588;12.148;2023-11-22T14:17:45;5.00;;;4.47;;
11303;SDS011;5707;49.588;12.148;2023-11-22T14:20:14;5.35;;;4.95;;
11303;SDS011;5707;49.588;12.148;2023-11-22T14:22:40;5.45;;;5.05;;
11303;SDS011;5707;49.588;12.148;2023-11-22T14:25:07;5.40;;;4.85;;
11303;SDS011;5707;49.588;12.148;2023-11-22T14:27:37;5.50;;;5.00;;
11303;SDS011;5707;49.588;12.148;2023-11-22T14:30:17;5.78;;;5.25;;
11303;SDS011;5707;49.588;12.148;2023-11-22T14:32:43;6.15;;;5.68;;
11303;SDS011;5707;49.588;12.148;2023-11-22T14:35:09;6.60;;;6.10;;
11303;SDS011;5707;49.588;12.148;2023-11-22T14:37:35;6.85;;;6.25;;
11303;SDS011;5707;49.588;12.148;2023-11-22T14:40:02;6.50;;;6.00;;
11303;SDS011;5707;49.588;12.148;2023-11-22T14:42:29;5.93;;;5.50;;
11303;SDS011;5707;49.588;12.148;2023-11-22T14:44:56;5.95;;;5.55;;
11303;SDS011;5707;49.588;12.148;2023-11-22T14:47:22;5.55;;;5.03;;
11303;SDS011;5707;49.588;12.148;2023-11-22T14:49:54;5.65;;;5.25;;
11303;SDS011;5707;49.588;12.148;2023-11-22T14:52:20;5.75;;;5.25;;